PILOTS ONLINE: 429    ATC ONLINE: 59

Location

IATA STS
City Santa Rosa
Country  United States
Latitude 38° 30' 32" N
Longitude 122° 48' 46" W
Elevation 128 ft
Type Medium Airport

Weather

METAR
2014/07/13 09:53
KSTS 130953Z AUTO 00000KT 10SM OVC002 13/12 A3000 RMK AO2 SLP152 T01330122
TAF
2014/07/13 09:03
TAF 
      AMD KSTS 130900Z 1309/1406 19005KT P6SM OVC004 
      TEMPO 1312/1316 1/2SM FG VV002 
     FM131700 17004KT P6SM SCT008 
     FM131900 18008KT P6SM SKC

Runways

01/19 5002 ft / 100 ft
14/32 5115 ft / 150 ft

Outbound flights

Inbound flights


Spotted incorrect airport information? Please login with your VATSIM ID.